AirNav   Everest Fuels
 
 1425 users online  

K62 Gene Snyder Airport
Falmouth, Kentucky, USA

GOING TO FALMOUTH?


FAA INFORMATION EFFECTIVE 10 OCTOBER 2019

Location

FAA Identifier: K62
Lat/Long: 38-42-14.7000N 084-23-30.6000W
38-42.245000N 084-23.510000W
38.7040833,-84.3918333
(estimated)
Elevation: 899.4 ft. / 274 m (estimated)
Variation: 06W (2015)
From city: 4 miles NW of FALMOUTH, KY
Time zone: UTC -4 (UTC -5 during Standard Time)
Zip code: 41040

Airport Operations

Airport use: Open to the public
Activation date: 10/1984
Control tower: no
ARTCC: INDIANAPOLIS CENTER
FSS: LOUISVILLE FLIGHT SERVICE STATION
NOTAMs facility: LOU (NOTAM-D service available)
Attendance: UNATNDD
Wind indicator: lighted
Segmented circle: yes
Lights: ACTVT MIRL RY 03/21, PAPI RY 03 & 21 - CTAF.
Beacon: white-green (lighted land airport)
Operates sunset to sunrise.

Airport Communications

CTAF/UNICOM: 122.7
WX AWOS-3: 123.825 (859-654-1345)
CINCINNATI APPROACH: 121.0
CINCINNATI DEPARTURE: 121.0

Nearby radio navigation aids

VOR radial/distance  VOR name  Freq  Var
FLMr315/5.0FALMOUTH VOR/DME117.0004W
CVGr146/23.7CINCINNATI VORTAC117.3004W
FFTr041/(39.6)FRANKFORT VOR109.4003W

 
NDB name  Hdg/Dist  Freq  Var  ID
SPORTYS204/23.824504WPWF .--. .-- ..-.
CINCINNATI189/27.433504WLUK .-.. ..- -.-
WEST UNION261/39.835904WAMT .- -- -

Airport Services

Fuel available: 100LL
Parking: tiedowns
Bottled oxygen: NONE
Bulk oxygen: NONE

Runway Information

Runway 3/21

Dimensions: 3994 x 75 ft. / 1217 x 23 m
Surface: asphalt, in fair condition
Weight bearing capacity: 
Single wheel: 12.5
Runway edge lights: medium intensity
RUNWAY 3  RUNWAY 21
Latitude: 38-41.947497N38-42.541563N
Longitude: 084-23.689598W084-23.328748W
Elevation: 899.2 ft.884.7 ft.
Traffic pattern: leftleft
Runway heading: 031 magnetic, 025 true211 magnetic, 205 true
Displaced threshold: 100 ft.no
Declared distances: TORA:3994 TODA:3994 ASDA:3994 LDA:3894TORA:3994 TODA:3994 ASDA:3894 LDA:3894
Markings: nonprecision, in fair conditionnonprecision, in fair condition
Visual slope indicator: 4-light PAPI on left (3.50 degrees glide path)4-light PAPI on left (3.50 degrees glide path)
Touchdown point: yes, no lightsyes, no lights
Obstructions: 49 ft. trees, 1120 ft. from runway, 130 ft. left of centerline, 18:1 slope to clear
20:1 SLOPE TO DSPLCD THR.
16 ft. trees, 360 ft. from runway, 240 ft. left of centerline, 10:1 slope to clear
+6 TREES AT RWY END 126 FT R OF CNTRLN.

Airport Ownership and Management from official FAA records

Ownership: Publicly-owned
Owner: DAN BELL, ARPT BOARD CHAIRMAN
400 GENE SNYDER AIRPORT DRIVE
FALMOUTH, KY 41040
Phone 859-654-1200
Manager: DAN BELL
400 GENE SNYDER AIRPORT DRIVE
FALMOUTH, KY 41040
Phone 859-654-1200

Airport Operational Statistics

Aircraft based on the field: 21
Single engine airplanes: 20
Multi engine airplanes: 1
    
Aircraft operations: avg 92/week *
55% transient general aviation
38% local general aviation
4% air taxi
3% military
* for 12-month period ending 25 June 2019

Additional Remarks

FOR CD CTC CINCINNATI APCH AT 859-372-6440

Instrument Procedures

NOTE: All procedures below are presented as PDF files. If you need a reader for these files, you should download the free Adobe Reader.

NOT FOR NAVIGATION. Please procure official charts for flight.
FAA instrument procedures published for use from 10 October 2019 at 0901Z to 17 November 2019 at 0900Z.

 
STARs - Standard Terminal Arrivals
BRUSH THREE   2 pages: [1] [2] (293KB)
CINCE EIGHT   download (279KB)
HARDU FOUR   2 pages: [1] [2] (304KB)
HEDEE FOUR   2 pages: [1] [2] (245KB)
SHELBYVILLE SIX   2 pages: [1] [2] (349KB)
 
IAPs - Instrument Approach Procedures
RNAV (GPS) RWY 21   download (189KB)
VOR-A   download (134KB)
NOTE: Special Take-Off Minimums/Departure Procedures apply   download (126KB)

Other nearby airports with instrument procedures:

0I8 - Cynthiana-Harrison County Airport (21 nm S)
KLUK - Cincinnati Municipal Airport-Lunken Field (24 nm N)
I69 - Clermont County Airport (24 nm N)
KCVG - Cincinnati/Northern Kentucky International Airport (24 nm NW)
KGEO - Brown County Airport (26 nm NE)
 
Loc | Ops | Rwys | IFR | FBO | Links
Com | Nav | Svcs | Stats | Notes
Area around K62 (Gene Snyder Airport)
 
Road maps at: MapQuest Bing Google
 
Aerial photo
WARNING: Photo may not be current or correct
Aerial photo of K62 (Gene Snyder Airport)
Photo courtesy of Charlie Pyles, airpixphoto.com
Photo taken 16-Oct-2010
looking northeast.

Do you have a better or more recent aerial photo of Gene Snyder Airport that you would like to share? If so, please send us your photo.

 
Sectional chart

 
Airport distance calculator
Flying to Gene Snyder Airport? Find the distance to fly.

From to K62

Sunrise and sunset
Times for 17-Oct-2019
 Local
(UTC-4)
 Zulu
(UTC)
Morning civil twilight07:2311:23
Sunrise07:5011:50
Sunset18:5622:56
Evening civil twilight19:2323:23

Current date and time
Zulu (UTC)  17-Oct-2019 14:30:25
Local (UTC-4)  17-Oct-2019 10:30:25
 
METAR
KLUK 
24nm N 
171353Z 29005KT 10SM CLR 09/03 A3003 RMK AO2 SLP170 T00940033
KI69 
24nm N 
171415Z AUTO 29010KT 10SM CLR 08/03 A3002 RMK AO2 T00840033
KCVG 
24nm NW 
171352Z 28006KT 10SM SCT160 SCT250 08/03 A3001 RMK AO2 SLP163 T00780028
K27K 
28nm S 
171415Z AUTO 27004KT 10SM CLR 08/03 A3005 RMK AO1
KFGX 
32nm E 
171415Z AUTO 30009KT 10SM CLR 07/03 A3003 RMK AO2 T00720030
KI67 
38nm NW 
171415Z AUTO 29005KT 10SM CLR 08/02 A3002 RMK AO1
KFFT 
39nm SW 
171353Z AUTO 32003KT 10SM CLR 09/03 A3004 RMK AO2 SLP173 T00940033
KHAO 
40nm N 
171353Z AUTO 29005KT 10SM CLR 09/03 A3002 RMK AO2 SLP167 T00890033
KLEX 
41nm S 
171354Z 28006KT 10SM CLR 09/03 A3005 RMK AO2 SLP176 T00890033
KIOB 
43nm SE 
171415Z AUTO 28003KT 10SM CLR 08/03 A3005 RMK AO2
TAF
KLUK 
24nm N 
171130Z 1712/1812 28008KT P6SM BKN200 FM171500 30009KT P6SM FEW045 SCT120 FM180000 31003KT P6SM FEW045 FEW100 FM180400 00000KT P6SM SKC TEMPO 1808/1812 3SM BR
KCVG 
24nm NW 
171130Z 1712/1818 28009KT P6SM BKN200 FM171500 30010KT P6SM FEW045 SCT120 FM180000 31005KT P6SM FEW045 FEW100 FM180400 VRB03KT P6SM SKC FM181500 08006KT P6SM FEW250
NOTAMs
Click for the latest NOTAMs
NOTAMs are issued by the DoD/FAA and will open in a separate window not controlled by AirNav.

 

 
 

FBO, Fuel Providers, and Aircraft Ground Support

  
 Business Name 
 
 Contact 
 
 Services / Description 
 
Fuel Prices
 
Comments
  
Gene Snyder Airport 859-654-1200
no information available

If you are affiliated with Gene Snyder Airport and would like to show here your services, contact info, web link, logo, and more, click here
100LL
SS $4.65 
 Updated 08-Oct-2019
 
   write
SS=Self service
Update Fuel Prices
 

Would you like to see your business listed on this page?

 If your business provides an interesting product or service to pilots, flight crews, aircraft, or users of the Gene Snyder Airport, you should consider listing it here.  To start the listing process, click on the button below
 
Add a business
 

Other Pages about Gene Snyder Airport

Update a link
 
Copyright © AirNav, LLC. All rights reserved. Privacy Policy  Contact